Terminal Aerodrome Forecast
Issued by NWS

Home | Current Version | Previous Version | Text Only | Print | Product List | Glossary On
Versions: 1 2 3 4 5 6 7 8 9 10 11 12 13 14 15 16 17 18 19 20 21 22 23 24 25 26
000
FTUS43 KICT 191100
TAFCNU
TAF
KCNU 191122Z 1912/2012 16005KT 3SM BR BKN004
     FM191400 17006KT 6SM BR BKN010
     FM191600 18009KT P6SM SCT035
      TEMPO 1916/1917 BKN025
     FM200100 17008KT P6SM SCT250=

USA.gov is the U.S. government's official web portal to all federal, state and local government web resources and services.